Airfield :
LOGIN :

Register | Disclaimer

   EN    FR    IT 

 










Legend :    VFR   Marginal VFR   IFR   Intensive IFR   Very Intensive IFR
Visi :
Ceiling :
>= 8 km
>= 3000ft
5 to 8 km
1000 to 3000 ft
1500m to 5 km
500 to 1000 ft
800 to 1500m
200 to 500 ft
< 800m
< 200 ft
Symbols :   Thunderstorms  Fog  Heavy snow  Heavy precipitations  Wind > 20 kt
SIGMETs :     Misc.  Thunderstorms  Icing  Turbulence  Mountain Waves  Volcanic Ashes







- Airport Elevation : 1521 ft
- IATA code : NCY
- Download approach charts


LFLP - Annecy

CURRENT METAR :
  • 200130Z AUTO VRB01KT 1000 0900 R04/1300U BCFG VV/// 07/07 Q1022

EXPIRED METARs :
  • 200100Z AUTO 00000KT 0650 0600 R04/0650D FG VV/// 07/07 Q1022
  • 200030Z AUTO VRB01KT 1100 0900 R04/1600D BCFG VV/// 08/07 Q1022
  • 200000Z AUTO 00000KT 3200 1400 R04/2600D BR OVC002 07/07 Q1022
  • 192330Z AUTO 00000KT 6000 BKN003 BKN048 07/06 Q1022

TAF TAF LFLP
Valid from the 19 at 15:00 until the 20 at 15:00 UTC


191400Z 1915/2015 VRB04KT 9999 SCT025 BKN040
TEMPO 1915/1918 4000 SHRA SCT025CB
PROB30
TEMPO 1915/1918 VRB15G25KT TSRA
TEMPO 2000/2007 2000 BR BKN005
No reported NOTAMs for that airfield.



MET'MAP, your aeronautical weather chart ! - Copyright ORBIFLY December 2007 - Disclaimer

ORBIFLY MET'MAP TEAM :

Programming & Development : Alexandra Zaïnal
Concept & Development : Baudouin d'Aumeries
Co-Development & Prog : Marc-Olivier Méhu
Technical & hardware support : Manuel Goepfert

Contact : metmap@orbifly.com




SOURCES & CREDITS :

   NOAA